createdAt,value
2023-08-29T00:01:03.557Z,91.50
2023-08-29T00:03:35.207Z,91.35
2023-08-29T00:06:05.338Z,90.77
2023-08-29T00:08:35.505Z,89.96
2023-08-29T00:11:09.096Z,89.21
2023-08-29T00:13:39.052Z,89.79
2023-08-29T00:16:09.306Z,91.93
2023-08-29T00:18:39.223Z,92.29
2023-08-29T00:21:09.092Z,92.97
2023-08-29T00:23:38.944Z,92.30
2023-08-29T00:26:11.516Z,91.77
2023-08-29T00:28:42.178Z,92.93
2023-08-29T00:31:14.340Z,92.49
2023-08-29T00:33:44.628Z,92.97
2023-08-29T00:36:14.545Z,93.37
2023-08-29T00:38:44.491Z,93.24
2023-08-29T00:41:16.943Z,94.83
2023-08-29T00:43:46.816Z,94.23
2023-08-29T00:46:16.774Z,94.92
2023-08-29T00:48:48.129Z,94.64
2023-08-29T00:51:17.989Z,94.34
2023-08-29T00:53:48.098Z,94.21
2023-08-29T00:56:21.024Z,93.81
2023-08-29T00:58:51.117Z,93.64
2023-08-29T01:01:21.087Z,92.96
2023-08-29T01:03:51.510Z,92.45
2023-08-29T01:06:21.728Z,91.97
2023-08-29T01:08:51.903Z,91.89
2023-08-29T01:11:30.746Z,91.35
2023-08-29T01:14:07.690Z,91.48
2023-08-29T01:16:42.299Z,91.82
2023-08-29T01:19:17.817Z,91.52
2023-08-29T01:22:09.168Z,92.02
2023-08-29T01:24:46.785Z,92.35
2023-08-29T01:27:20.259Z,92.09
2023-08-29T01:29:50.280Z,91.66
2023-08-29T01:32:20.473Z,92.10
2023-08-29T01:34:52.509Z,92.40
2023-08-29T01:37:22.387Z,92.74
2023-08-29T01:39:52.259Z,93.21
2023-08-29T01:42:24.892Z,92.35
2023-08-29T01:44:55.220Z,91.89
2023-08-29T01:47:25.166Z,92.07
2023-08-29T01:49:55.645Z,92.17
2023-08-29T01:52:26.418Z,93.20
2023-08-29T01:54:56.399Z,93.38
2023-08-29T01:57:31.433Z,92.35
2023-08-29T02:00:02.360Z,92.47
2023-08-29T02:02:33.204Z,93.73
2023-08-29T02:05:03.252Z,93.31
2023-08-29T02:07:33.134Z,93.28
2023-08-29T02:10:04.496Z,93.59
2023-08-29T02:12:37.023Z,93.29
2023-08-29T02:15:08.060Z,93.47
2023-08-29T02:17:38.285Z,94.44
2023-08-29T02:20:12.677Z,95.05
2023-08-29T02:22:45.436Z,96.33
2023-08-29T02:25:15.939Z,95.06
2023-08-29T02:27:48.410Z,94.60
2023-08-29T02:30:18.343Z,94.93
2023-08-29T02:32:48.448Z,94.13
2023-08-29T02:35:18.417Z,94.09
2023-08-29T02:37:48.308Z,94.30
2023-08-29T02:40:18.196Z,93.77
2023-08-29T02:42:50.658Z,93.85
2023-08-29T02:45:20.548Z,93.92
2023-08-29T02:47:51.591Z,94.16
2023-08-29T02:50:21.507Z,94.42
2023-08-29T02:52:51.333Z,94.93
2023-08-29T02:55:21.210Z,95.94
2023-08-29T02:57:53.640Z,95.32
2023-08-29T03:00:23.626Z,95.56
2023-08-29T03:02:54.211Z,95.80
2023-08-29T03:05:24.220Z,95.93
2023-08-29T03:07:55.943Z,96.21
2023-08-29T03:10:25.835Z,96.84
2023-08-29T03:12:58.315Z,95.95
2023-08-29T03:15:28.194Z,95.64
2023-08-29T03:18:00.456Z,94.97
2023-08-29T03:20:31.812Z,95.18
2023-08-29T03:23:01.787Z,95.52
2023-08-29T03:25:31.712Z,94.13
2023-08-29T03:28:05.037Z,93.50
2023-08-29T03:30:35.168Z,93.22
2023-08-29T03:33:05.201Z,92.74
2023-08-29T03:35:35.262Z,93.10
2023-08-29T03:38:05.433Z,93.21
2023-08-29T03:40:35.510Z,93.03
2023-08-29T03:43:08.133Z,92.76
2023-08-29T03:45:37.994Z,92.50
2023-08-29T03:48:19.399Z,92.38
2023-08-29T03:50:54.283Z,93.05
2023-08-29T03:53:24.347Z,92.77
2023-08-29T03:55:54.498Z,93.24
2023-08-29T03:58:27.117Z,93.50
2023-08-29T04:00:57.754Z,94.05
2023-08-29T04:03:28.199Z,94.43
2023-08-29T04:05:58.226Z,94.42
2023-08-29T04:08:28.223Z,93.95
2023-08-29T04:10:58.174Z,93.48
2023-08-29T04:13:31.000Z,93.26
2023-08-29T04:16:05.101Z,93.26
2023-08-29T04:18:36.334Z,93.39
2023-08-29T04:21:06.374Z,93.27
2023-08-29T04:23:36.227Z,94.45
2023-08-29T04:26:07.025Z,94.60
2023-08-29T04:28:39.648Z,94.24
2023-08-29T04:31:13.215Z,94.00
2023-08-29T04:33:43.898Z,93.85
2023-08-29T04:36:13.764Z,94.01
2023-08-29T04:38:46.134Z,94.07
2023-08-29T04:41:16.009Z,94.27
2023-08-29T04:43:48.488Z,94.46
2023-08-29T04:46:18.386Z,94.54
2023-08-29T04:48:48.276Z,94.66
2023-08-29T04:51:18.172Z,94.43
2023-08-29T04:53:49.321Z,94.73
2023-08-29T04:56:19.176Z,94.70
2023-08-29T04:58:52.180Z,94.63
2023-08-29T05:01:22.075Z,95.28
2023-08-29T05:03:52.065Z,95.30
2023-08-29T05:06:22.437Z,95.83
2023-08-29T05:08:52.318Z,96.06
2023-08-29T05:11:22.222Z,95.96
2023-08-29T05:13:54.727Z,96.54
2023-08-29T05:16:24.589Z,96.69
2023-08-29T05:18:54.580Z,96.60
2023-08-29T05:21:24.495Z,96.21
2023-08-29T05:23:55.531Z,96.58
2023-08-29T05:26:25.507Z,96.88
2023-08-29T05:28:58.106Z,97.10
2023-08-29T05:31:28.029Z,98.22
2023-08-29T05:33:58.021Z,98.19
2023-08-29T05:36:27.970Z,98.42
2023-08-29T05:38:57.822Z,98.81
2023-08-29T05:41:27.706Z,98.59
2023-08-29T05:44:00.185Z,98.40
2023-08-29T05:46:30.108Z,97.93
2023-08-29T05:49:00.945Z,97.92
2023-08-29T05:51:31.101Z,98.26
2023-08-29T05:54:00.950Z,98.55
2023-08-29T05:56:31.328Z,98.41
2023-08-29T05:59:03.841Z,97.90
2023-08-29T06:01:36.527Z,98.69
2023-08-29T06:04:06.743Z,98.75
2023-08-29T06:06:40.001Z,99.35
2023-08-29T06:09:09.970Z,100.00
2023-08-29T06:11:41.068Z,100.00
2023-08-29T06:14:13.490Z,100.00
2023-08-29T06:16:43.379Z,100.00
2023-08-29T06:19:13.232Z,100.00
2023-08-29T06:21:43.076Z,100.00
2023-08-29T06:24:13.072Z,100.00
2023-08-29T06:26:42.931Z,100.00
2023-08-29T06:29:15.428Z,100.00
2023-08-29T06:31:45.333Z,100.00
2023-08-29T06:34:15.272Z,100.00
2023-08-29T06:36:45.651Z,100.00
2023-08-29T06:39:15.601Z,100.00
2023-08-29T06:41:45.479Z,100.00
2023-08-29T06:44:18.792Z,100.00
2023-08-29T06:46:48.716Z,100.00
2023-08-29T06:49:18.858Z,100.00
2023-08-29T06:51:48.697Z,100.00
2023-08-29T06:54:18.542Z,100.00
2023-08-29T06:56:49.067Z,100.00
2023-08-29T06:59:21.514Z,100.00
2023-08-29T07:01:53.763Z,100.00
2023-08-29T07:04:23.857Z,100.00
2023-08-29T07:06:53.894Z,100.00
2023-08-29T07:09:23.913Z,100.00
2023-08-29T07:11:53.789Z,100.00
2023-08-29T07:14:26.411Z,100.00
2023-08-29T07:17:09.395Z,100.00
2023-08-29T07:19:40.165Z,100.00
2023-08-29T07:22:23.627Z,100.00
2023-08-29T07:24:54.987Z,100.00
2023-08-29T07:27:24.895Z,100.00
2023-08-29T07:29:57.329Z,100.00
2023-08-29T07:32:27.242Z,100.00
2023-08-29T07:34:58.927Z,99.66
2023-08-29T07:37:28.764Z,99.07
2023-08-29T07:39:58.614Z,99.02
2023-08-29T07:42:28.468Z,98.94
2023-08-29T07:45:00.928Z,99.51
2023-08-29T07:47:30.855Z,99.61
2023-08-29T07:50:00.703Z,99.03
2023-08-29T07:52:30.593Z,99.71
2023-08-29T07:55:00.818Z,99.66
2023-08-29T07:57:30.690Z,99.50
2023-08-29T08:00:03.566Z,99.65
2023-08-29T08:02:39.700Z,98.81
2023-08-29T08:05:11.705Z,97.66
2023-08-29T08:07:41.719Z,97.17
2023-08-29T08:10:13.018Z,97.18
2023-08-29T08:12:43.832Z,96.54
2023-08-29T08:15:16.532Z,95.99
2023-08-29T08:17:47.697Z,95.27
2023-08-29T08:20:18.287Z,94.88
2023-08-29T08:22:48.167Z,94.11
2023-08-29T08:25:18.015Z,93.06
2023-08-29T08:27:47.883Z,93.02
2023-08-29T08:30:20.602Z,92.60
2023-08-29T08:32:50.473Z,92.79
2023-08-29T08:35:20.613Z,93.13
2023-08-29T08:37:50.477Z,93.12
2023-08-29T08:40:20.448Z,92.27
2023-08-29T08:42:50.514Z,92.23
2023-08-29T08:45:25.172Z,91.45
2023-08-29T08:47:55.874Z,91.55
2023-08-29T08:50:27.496Z,91.47
2023-08-29T08:52:59.217Z,91.01
2023-08-29T08:55:29.687Z,91.00
2023-08-29T08:58:08.130Z,91.24
2023-08-29T09:00:40.922Z,90.84
2023-08-29T09:03:11.113Z,89.03
2023-08-29T09:05:40.980Z,89.36
2023-08-29T09:08:11.315Z,90.27
2023-08-29T09:10:43.085Z,88.33
2023-08-29T09:13:18.919Z,89.11
2023-08-29T09:15:52.368Z,89.42
2023-08-29T09:18:27.581Z,88.04
2023-08-29T09:20:58.944Z,88.20
2023-08-29T09:23:31.038Z,86.69
2023-08-29T09:26:02.667Z,87.03
2023-08-29T09:28:33.360Z,87.85
2023-08-29T09:31:12.204Z,86.64
2023-08-29T09:33:42.306Z,86.23
2023-08-29T09:36:12.241Z,86.38
2023-08-29T09:38:45.078Z,85.89
2023-08-29T09:41:17.724Z,86.26
2023-08-29T09:43:51.715Z,86.32
2023-08-29T09:46:30.266Z,84.39
2023-08-29T09:49:01.127Z,84.61
2023-08-29T09:51:33.980Z,82.85
2023-08-29T09:54:09.617Z,83.79
2023-08-29T09:56:41.968Z,83.48
2023-08-29T09:59:14.439Z,83.56
2023-08-29T10:01:48.726Z,82.36
2023-08-29T10:04:24.817Z,81.75
2023-08-29T10:06:58.702Z,81.26
2023-08-29T10:09:29.402Z,80.15
2023-08-29T10:11:59.900Z,80.04
2023-08-29T10:14:30.231Z,79.22
2023-08-29T10:17:08.479Z,78.67
2023-08-29T10:19:42.297Z,79.20
2023-08-29T10:22:14.362Z,78.60
2023-08-29T10:24:45.459Z,76.03
2023-08-29T10:27:15.379Z,76.55
2023-08-29T10:29:45.333Z,76.95
2023-08-29T10:32:18.117Z,77.06
2023-08-29T10:34:48.087Z,76.23
2023-08-29T10:37:20.511Z,76.38
2023-08-29T10:39:52.211Z,75.91
2023-08-29T10:42:22.465Z,76.32
2023-08-29T10:44:52.360Z,76.10
2023-08-29T10:47:28.075Z,74.96
2023-08-29T10:50:03.637Z,76.17
2023-08-29T10:52:41.497Z,73.60
2023-08-29T10:55:24.596Z,73.75
2023-08-29T10:57:59.799Z,72.47
2023-08-29T11:00:37.181Z,70.96
2023-08-29T11:03:09.963Z,71.76
2023-08-29T11:05:42.280Z,71.50
2023-08-29T11:08:25.011Z,70.67
2023-08-29T11:11:17.377Z,70.79
2023-08-29T11:14:04.173Z,65.01
2023-08-29T11:16:36.797Z,67.75
2023-08-29T11:19:15.128Z,68.56
2023-08-29T11:21:47.435Z,68.21
2023-08-29T11:24:17.665Z,66.43
2023-08-29T11:26:48.986Z,66.36
2023-08-29T11:29:18.929Z,66.08
2023-08-29T11:31:49.766Z,66.65
2023-08-29T11:34:22.986Z,67.82
2023-08-29T11:36:53.999Z,66.96
2023-08-29T11:39:24.219Z,66.38
2023-08-29T11:42:06.971Z,65.29
2023-08-29T11:45:32.863Z,65.79
2023-08-29T11:47:34.907Z,66.03
2023-08-29T11:50:08.359Z,65.87
2023-08-29T11:52:38.311Z,64.84
2023-08-29T11:55:14.311Z,64.71
2023-08-29T11:57:46.615Z,65.05
2023-08-29T12:00:17.766Z,63.12
2023-08-29T12:02:48.115Z,63.91
2023-08-29T12:05:24.239Z,61.65
2023-08-29T12:07:55.937Z,61.47
2023-08-29T12:10:27.571Z,59.46
2023-08-29T12:12:57.474Z,61.07
2023-08-29T12:15:43.970Z,60.78
2023-08-29T12:18:24.488Z,60.57
2023-08-29T12:21:13.593Z,58.85
2023-08-29T12:23:44.029Z,57.44
2023-08-29T12:26:16.390Z,58.74
2023-08-29T12:28:46.373Z,59.44
2023-08-29T12:31:16.631Z,58.68
2023-08-29T12:33:46.667Z,59.00
2023-08-29T12:36:19.287Z,59.38
2023-08-29T12:38:49.239Z,58.87
2023-08-29T12:41:19.223Z,59.68
2023-08-29T12:43:49.111Z,57.90
2023-08-29T12:46:20.261Z,57.90
2023-08-29T12:48:56.428Z,57.33
2023-08-29T12:51:28.965Z,57.83
2023-08-29T12:53:58.840Z,57.18
2023-08-29T12:56:28.788Z,57.79
2023-08-29T12:58:58.690Z,56.43
2023-08-29T13:01:29.865Z,56.56
2023-08-29T13:03:59.783Z,55.49
2023-08-29T13:06:32.325Z,55.06
2023-08-29T13:09:02.670Z,55.14
2023-08-29T13:11:32.899Z,55.08
2023-08-29T13:14:03.052Z,55.52
2023-08-29T13:16:37.278Z,52.99
2023-08-29T13:19:07.609Z,53.30
2023-08-29T13:21:40.193Z,55.23
2023-08-29T13:24:11.535Z,56.94
2023-08-29T13:26:41.510Z,57.54
2023-08-29T13:29:11.437Z,57.80
2023-08-29T13:31:41.700Z,55.77
2023-08-29T13:34:11.691Z,56.12
2023-08-29T13:36:44.784Z,57.00
2023-08-29T13:39:14.711Z,56.50
2023-08-29T13:41:45.466Z,58.15
2023-08-29T13:44:15.747Z,56.87
2023-08-29T13:46:46.942Z,56.58
2023-08-29T13:49:17.037Z,56.81
2023-08-29T13:51:50.263Z,57.24
2023-08-29T13:54:20.292Z,57.84
2023-08-29T13:56:50.820Z,58.39
2023-08-29T13:59:20.929Z,57.54
2023-08-29T14:01:50.994Z,57.67
2023-08-29T14:04:21.035Z,58.19
2023-08-29T14:06:53.583Z,59.18
2023-08-29T14:09:24.031Z,58.41
2023-08-29T14:11:54.014Z,58.80
2023-08-29T14:14:25.425Z,59.82
2023-08-29T14:16:55.391Z,60.33
2023-08-29T14:19:25.917Z,60.19
2023-08-29T14:21:58.424Z,59.80
2023-08-29T14:24:28.586Z,59.53
2023-08-29T14:26:58.525Z,59.18
2023-08-29T14:29:32.114Z,60.17
2023-08-29T14:32:02.346Z,58.71
2023-08-29T14:34:32.250Z,58.07
2023-08-29T14:37:05.512Z,57.01
2023-08-29T14:39:35.542Z,57.67
2023-08-29T14:42:05.534Z,57.38
2023-08-29T14:44:35.880Z,57.64
2023-08-29T14:47:08.818Z,58.29
2023-08-29T14:49:39.934Z,58.05
2023-08-29T14:52:12.571Z,57.89
2023-08-29T14:54:42.451Z,57.24
2023-08-29T14:57:12.515Z,56.47
2023-08-29T14:59:43.966Z,55.93
2023-08-29T15:02:14.154Z,55.38
2023-08-29T15:04:44.083Z,54.50
2023-08-29T15:07:17.295Z,55.82
2023-08-29T15:09:47.411Z,55.27
2023-08-29T15:12:17.401Z,53.94
2023-08-29T15:14:47.404Z,55.22
2023-08-29T15:17:17.345Z,54.67
2023-08-29T15:19:47.323Z,55.25
2023-08-29T15:22:19.818Z,56.06
2023-08-29T15:24:49.778Z,55.97
2023-08-29T15:27:19.689Z,55.94
2023-08-29T15:29:49.584Z,55.13
2023-08-29T15:32:19.540Z,55.25
2023-08-29T15:34:49.464Z,55.57
2023-08-29T15:37:22.452Z,55.35
2023-08-29T15:39:52.456Z,55.88
2023-08-29T15:42:22.413Z,54.76
2023-08-29T15:44:52.419Z,55.25
2023-08-29T15:47:22.864Z,55.48
2023-08-29T15:49:52.906Z,55.39
2023-08-29T15:52:25.393Z,55.50
2023-08-29T15:54:55.316Z,56.36
2023-08-29T15:57:25.363Z,57.09
2023-08-29T15:59:55.376Z,57.01
2023-08-29T16:02:25.378Z,56.89
2023-08-29T16:04:56.423Z,56.79
2023-08-29T16:07:29.003Z,56.43
2023-08-29T16:09:58.881Z,56.77
2023-08-29T16:12:29.650Z,56.80
2023-08-29T16:15:00.146Z,56.83
2023-08-29T16:17:30.240Z,56.28
2023-08-29T16:20:00.676Z,57.43
2023-08-29T16:22:33.297Z,57.42
2023-08-29T16:25:05.866Z,57.15
2023-08-29T16:27:37.030Z,55.94
2023-08-29T16:30:08.843Z,55.95
2023-08-29T16:32:39.089Z,56.02
2023-08-29T16:35:10.506Z,56.11
2023-08-29T16:37:43.228Z,55.57
2023-08-29T16:40:14.176Z,55.57
2023-08-29T16:42:44.158Z,55.38
2023-08-29T16:45:14.313Z,56.21
2023-08-29T16:47:44.234Z,55.29
2023-08-29T16:50:14.895Z,55.03
2023-08-29T16:52:47.478Z,55.47
2023-08-29T16:55:19.817Z,55.92
2023-08-29T16:57:50.924Z,56.11
2023-08-29T17:00:21.784Z,56.85
2023-08-29T17:02:51.749Z,56.61
2023-08-29T17:05:22.336Z,57.22
2023-08-29T17:07:55.176Z,57.49
2023-08-29T17:10:25.179Z,57.09
2023-08-29T17:12:55.107Z,56.88
2023-08-29T17:15:25.016Z,57.14
2023-08-29T17:17:55.119Z,58.14
2023-08-29T17:20:27.033Z,57.40
2023-08-29T17:22:59.503Z,58.11
2023-08-29T17:25:29.639Z,59.00
2023-08-29T17:27:59.898Z,59.07
2023-08-29T17:30:30.018Z,59.51
2023-08-29T17:32:59.962Z,59.67
2023-08-29T17:35:29.957Z,59.38
2023-08-29T17:38:02.530Z,59.54
2023-08-29T17:40:32.513Z,60.07
2023-08-29T17:43:04.234Z,60.39
2023-08-29T17:45:34.823Z,60.06
2023-08-29T17:48:04.732Z,60.69
2023-08-29T17:50:35.544Z,60.80
2023-08-29T17:53:08.094Z,60.88
2023-08-29T17:55:38.951Z,62.11
2023-08-29T17:58:13.640Z,62.66
2023-08-29T18:00:45.464Z,63.18
2023-08-29T18:03:15.667Z,63.50
2023-08-29T18:05:52.052Z,63.96
2023-08-29T18:08:27.253Z,64.78
2023-08-29T18:10:57.988Z,65.32
2023-08-29T18:13:27.978Z,65.48
2023-08-29T18:15:58.176Z,65.53
2023-08-29T18:18:31.546Z,66.17
2023-08-29T18:21:02.473Z,66.20
2023-08-29T18:23:35.173Z,66.52
2023-08-29T18:26:06.472Z,66.92
2023-08-29T18:28:39.757Z,67.13
2023-08-29T18:31:09.959Z,67.90
2023-08-29T18:33:39.880Z,68.74
2023-08-29T18:36:09.947Z,69.33
2023-08-29T18:38:42.597Z,69.06
2023-08-29T18:41:12.919Z,69.76
2023-08-29T18:43:42.888Z,70.45
2023-08-29T18:46:13.597Z,71.02
2023-08-29T18:48:45.254Z,71.57
2023-08-29T18:51:15.207Z,71.96
2023-08-29T18:53:47.873Z,72.43
2023-08-29T18:56:18.421Z,72.88
2023-08-29T18:58:48.802Z,73.13
2023-08-29T19:01:18.702Z,73.61
2023-08-29T19:03:49.085Z,73.85
2023-08-29T19:06:21.617Z,74.00
2023-08-29T19:08:55.170Z,73.97
2023-08-29T19:11:25.083Z,73.98
2023-08-29T19:13:54.974Z,74.85
2023-08-29T19:16:25.568Z,74.23
2023-08-29T19:18:55.563Z,74.42
2023-08-29T19:21:26.290Z,74.47
2023-08-29T19:24:00.657Z,74.67
2023-08-29T19:26:31.328Z,74.97
2023-08-29T19:29:01.248Z,75.63
2023-08-29T19:31:31.366Z,75.81
2023-08-29T19:34:01.310Z,76.20
2023-08-29T19:36:31.210Z,76.29
2023-08-29T19:39:16.771Z,76.46
2023-08-29T19:41:47.569Z,76.90
2023-08-29T19:44:19.306Z,77.50
2023-08-29T19:46:50.122Z,77.89
2023-08-29T19:49:20.239Z,78.66
2023-08-29T19:51:50.155Z,78.81
2023-08-29T19:54:22.648Z,79.13
2023-08-29T19:56:54.287Z,79.41
2023-08-29T19:59:24.187Z,78.75
2023-08-29T20:01:54.192Z,78.72
2023-08-29T20:04:24.294Z,77.93
2023-08-29T20:06:54.173Z,77.83
2023-08-29T20:09:26.744Z,77.53
2023-08-29T20:11:57.302Z,77.45
2023-08-29T20:14:30.568Z,77.75
2023-08-29T20:17:05.072Z,77.67
2023-08-29T20:19:36.357Z,77.39
2023-08-29T20:22:06.731Z,77.55
2023-08-29T20:24:39.198Z,78.03
2023-08-29T20:27:09.373Z,77.78
2023-08-29T20:29:39.250Z,78.06
2023-08-29T20:32:09.625Z,78.25
2023-08-29T20:34:39.551Z,78.46
2023-08-29T20:37:09.486Z,78.81
2023-08-29T20:39:41.990Z,79.02
2023-08-29T20:42:12.327Z,79.20
2023-08-29T20:44:42.369Z,79.28
2023-08-29T20:47:13.996Z,80.14
2023-08-29T20:49:44.104Z,79.69
2023-08-29T20:52:14.008Z,80.16
2023-08-29T20:54:46.901Z,79.97
2023-08-29T20:57:16.798Z,79.80
2023-08-29T20:59:47.117Z,80.16
2023-08-29T21:02:17.497Z,80.41
2023-08-29T21:04:47.798Z,80.34
2023-08-29T21:07:17.687Z,80.89
2023-08-29T21:09:50.160Z,80.37
2023-08-29T21:12:21.619Z,80.55
2023-08-29T21:14:52.290Z,80.71
2023-08-29T21:17:23.377Z,80.60
2023-08-29T21:19:53.250Z,81.42
2023-08-29T21:22:23.114Z,81.34
2023-08-29T21:24:55.964Z,81.39
2023-08-29T21:27:25.957Z,82.06
2023-08-29T21:29:56.474Z,82.06
2023-08-29T21:32:27.865Z,82.43
2023-08-29T21:34:58.519Z,82.70
2023-08-29T21:37:29.479Z,82.88
2023-08-29T21:40:02.976Z,82.79
2023-08-29T21:42:33.448Z,84.06
2023-08-29T21:45:03.588Z,83.96
2023-08-29T21:47:34.157Z,83.76
2023-08-29T21:50:04.567Z,84.57
2023-08-29T21:52:34.896Z,84.75
2023-08-29T21:55:09.638Z,85.54
2023-08-29T21:57:40.247Z,85.78
2023-08-29T22:00:20.783Z,86.46
2023-08-29T22:02:50.919Z,86.49
2023-08-29T22:05:21.561Z,86.32
2023-08-29T22:07:51.592Z,86.16
2023-08-29T22:10:24.754Z,86.20
2023-08-29T22:12:55.198Z,87.00
2023-08-29T22:15:25.395Z,86.93
2023-08-29T22:17:55.493Z,86.26
2023-08-29T22:20:25.776Z,86.27
2023-08-29T22:22:56.370Z,85.98
2023-08-29T22:25:28.917Z,85.37
2023-08-29T22:27:58.976Z,86.45
2023-08-29T22:30:29.006Z,87.36
2023-08-29T22:32:58.980Z,87.92
2023-08-29T22:35:29.036Z,87.62
2023-08-29T22:37:58.969Z,87.42
2023-08-29T22:40:32.418Z,87.11
2023-08-29T22:43:02.305Z,87.12
2023-08-29T22:45:32.274Z,86.51
2023-08-29T22:48:02.279Z,86.68
2023-08-29T22:50:32.278Z,87.36
2023-08-29T22:53:02.169Z,87.76
2023-08-29T22:55:35.918Z,88.99
2023-08-29T22:58:07.112Z,89.13
2023-08-29T23:00:38.848Z,88.88
2023-08-29T23:03:08.807Z,88.78
2023-08-29T23:05:45.811Z,88.56
2023-08-29T23:08:17.033Z,88.77
2023-08-29T23:10:49.564Z,88.69
2023-08-29T23:13:19.916Z,88.60
2023-08-29T23:15:54.727Z,88.77
2023-08-29T23:18:27.891Z,88.25
2023-08-29T23:20:55.483Z,88.66
2023-08-29T23:23:29.114Z,88.65
2023-08-29T23:26:02.102Z,88.55
2023-08-29T23:28:32.201Z,88.99
2023-08-29T23:31:02.404Z,88.76
2023-08-29T23:33:32.349Z,89.14
2023-08-29T23:36:02.439Z,88.76
2023-08-29T23:38:32.355Z,88.90
2023-08-29T23:41:04.853Z,88.47
2023-08-29T23:43:34.854Z,89.06
2023-08-29T23:46:04.808Z,89.07
2023-08-29T23:48:34.812Z,89.50
2023-08-29T23:51:06.103Z,89.02
2023-08-29T23:53:36.102Z,89.09
2023-08-29T23:56:08.644Z,89.50
2023-08-29T23:58:38.534Z,89.59
